• Join FlightAware (Why Join?)
  • Login
  • US Flag 
09:59PM EDT


 

Airport Tracker/Info


-or-


 

Live Flight TrackerFlight Track Log ✈ N6198F ✈ 29-Jun-2013 ✈ KHSV - KGAD

Flight Track Log - Related Links

Times and Time Zones

All times are in EDT time to prevent confusion due to time zone crossing. See the N6198F flight status page for this flight to view local times or setup timezone preferences in your user account.

Time Position Orientation Groundspeed Altitude Reporting Facility
EDT Latitude Longitude Course Direction KTS MPH feet Rate Location/Type
01:39PM 34.4806 -86.6121 139° Southeast  Level Estimated
01:40PM 34.4545 -86.5850 139° Southeast  Level Estimated
01:41PM 34.4283 -86.5579 139° Southeast  Level Estimated
01:42PM 34.4022 -86.5308 139° Southeast  Level Estimated
01:43PM 34.3761 -86.5037 139° Southeast  Level Estimated
01:44PM 34.3499 -86.4767 140° Southeast  Level Estimated
01:45PM 34.3238 -86.4497 140° Southeast  Level Estimated
01:46PM 34.2976 -86.4227 140° Southeast  Level Estimated
01:47PM 34.2715 -86.3957 140° Southeast  Level Estimated
01:48PM 34.2453 -86.3687 140° Southeast  Level Estimated
01:49PM 34.2191 -86.3418 140° Southeast  Level Estimated
01:50PM 34.1929 -86.3148 140° Southeast  Level Estimated
01:51PM 34.1667 -86.2879 140° Southeast  Level Estimated
01:52PM 34.1405 -86.2610 140° Southeast  Level Estimated
01:53PM 34.1143 -86.2341 140° Southeast  Level Estimated
01:54PM 34.0881 -86.2072 140° Southeast  Level Estimated
01:55PM 34.0619 -86.1804 140° Southeast  Level Estimated
01:56PM 34.0357 -86.1535 140° Southeast  Level Estimated
01:57PM 34.0095 -86.1267 140° Southeast  Level Estimated
01:58PM 33.9832 -86.0999 140° Southeast  Level Estimated
01:59PM 33.9726 -86.0891 140° Southeast  Level Estimated
02:00PM 33.9726 -86.0891 249° West  Level Estimated
02:01PM 33.9726 -86.0891 249° West  Level Estimated
02:02PM 33.9726 -86.0891 249° West  Level Estimated
02:03PM 33.9726 -86.0891 249° West  Level Estimated
02:04PM 33.9726 -86.0891 249° West  Level Estimated
02:05PM 33.9726 -86.0891 249° West  Level Estimated
02:06PM 33.9726 -86.0891 249° West  Level Estimated
02:07PM 33.9726 -86.0891 249° West  Level Estimated
02:08PM 33.9726 -86.0891 249° West  Level Estimated
02:09PM 33.9726 -86.0891 249° West  Level Estimated
02:10PM 33.9726 -86.0891 249° West  Level Estimated
02:11PM 33.9726 -86.0891 249° West  Level Estimated
02:12PM 33.9726 -86.0891 249° West  Level Estimated
02:13PM 33.9726 -86.0891 249° West  Level Estimated
02:14PM 33.9726 -86.0891 249° West  Level Estimated